createdAt,value
2023-03-13T00:01:42.216Z,6.13
2023-03-13T00:04:11.677Z,5.27
2023-03-13T00:06:43.764Z,4.70
2023-03-13T00:09:17.776Z,5.80
2023-03-13T00:11:47.727Z,3.88
2023-03-13T00:14:17.083Z,3.13
2023-03-13T00:16:46.368Z,4.53
2023-03-13T00:19:16.644Z,5.30
2023-03-13T00:21:45.905Z,5.93
2023-03-13T00:24:16.880Z,7.85
2023-03-13T00:26:46.147Z,8.35
2023-03-13T00:29:15.845Z,9.30
2023-03-13T00:31:45.201Z,6.07
2023-03-13T00:34:14.516Z,4.75
2023-03-13T00:36:43.765Z,5.00
2023-03-13T00:39:13.335Z,4.38
2023-03-13T00:41:44.228Z,6.47
2023-03-13T00:44:13.502Z,5.75
2023-03-13T00:46:42.882Z,4.82
2023-03-13T00:50:25.450Z,4.68
2023-03-13T00:52:54.912Z,4.40
2023-03-13T00:55:24.284Z,3.80
2023-03-13T00:57:53.779Z,4.32
2023-03-13T01:00:24.264Z,5.10
2023-03-13T01:02:53.661Z,4.32
2023-03-13T01:05:24.420Z,4.78
2023-03-13T01:07:53.684Z,4.25
2023-03-13T01:10:22.969Z,4.05
2023-03-13T01:12:52.163Z,4.82
2023-03-13T01:15:21.570Z,4.03
2023-03-13T01:17:51.105Z,3.55
2023-03-13T01:20:20.893Z,4.82
2023-03-13T01:22:51.649Z,4.78
2023-03-13T01:25:21.077Z,4.45
2023-03-13T01:27:50.353Z,3.50
2023-03-13T01:30:20.204Z,5.70
2023-03-13T01:32:49.558Z,4.35
2023-03-13T01:35:19.773Z,3.60
2023-03-13T01:37:50.599Z,3.92
2023-03-13T01:40:20.249Z,3.30
2023-03-13T01:42:57.050Z,3.83
2023-03-13T01:46:03.607Z,4.15
2023-03-13T01:48:42.309Z,3.33
2023-03-13T01:51:16.334Z,3.40
2023-03-13T01:53:53.630Z,3.65
2023-03-13T01:56:29.011Z,3.08
2023-03-13T01:59:00.992Z,3.55
2023-03-13T02:01:31.415Z,2.87
2023-03-13T02:04:01.165Z,2.65
2023-03-13T02:06:34.814Z,3.33
2023-03-13T02:09:11.110Z,2.67
2023-03-13T02:11:51.352Z,3.42
2023-03-13T02:14:28.389Z,3.15
2023-03-13T02:16:58.669Z,4.75
2023-03-13T02:19:37.414Z,3.67
2023-03-13T02:22:20.847Z,3.08
2023-03-13T02:24:58.574Z,9.18
2023-03-13T02:27:29.842Z,4.57
2023-03-13T02:30:00.848Z,4.32
2023-03-13T02:32:32.421Z,3.80
2023-03-13T02:35:08.208Z,4.00
2023-03-13T02:37:39.572Z,3.95
2023-03-13T02:40:14.341Z,3.35
2023-03-13T02:42:48.279Z,3.75
2023-03-13T02:45:19.207Z,3.47
2023-03-13T02:47:48.515Z,3.05
2023-03-13T02:50:18.418Z,5.05
2023-03-13T02:52:50.976Z,3.38
2023-03-13T02:55:27.221Z,2.90
2023-03-13T02:57:58.254Z,3.55
2023-03-13T03:00:29.232Z,2.58
2023-03-13T03:02:58.616Z,2.85
2023-03-13T03:05:27.914Z,4.13
2023-03-13T03:07:57.179Z,3.78
2023-03-13T03:10:26.547Z,4.25
2023-03-13T03:12:57.256Z,3.72
2023-03-13T03:15:26.530Z,4.15
2023-03-13T03:17:55.859Z,4.18
2023-03-13T03:20:25.163Z,4.28
2023-03-13T03:22:54.531Z,4.80
2023-03-13T03:25:23.971Z,6.18
2023-03-13T03:27:53.310Z,4.88
2023-03-13T03:30:24.454Z,5.72
2023-03-13T03:32:53.839Z,4.72
2023-03-13T03:35:23.257Z,3.08
2023-03-13T03:37:52.494Z,4.35
2023-03-13T03:40:22.109Z,3.22
2023-03-13T03:42:51.473Z,3.80
2023-03-13T03:45:20.768Z,4.32
2023-03-13T03:51:25.656Z,6.63
2023-03-13T03:53:54.971Z,7.25
2023-03-13T03:56:24.373Z,12.80
2023-03-13T03:58:53.661Z,15.52
2023-03-13T04:01:23.221Z,23.73
2023-03-13T04:03:52.528Z,15.50
2023-03-13T04:06:23.351Z,17.98
2023-03-13T04:08:52.593Z,22.50
2023-03-13T04:11:21.941Z,15.38
2023-03-13T04:13:51.297Z,15.05
2023-03-13T04:16:20.779Z,13.25
2023-03-13T04:18:50.352Z,12.30
2023-03-13T04:21:19.798Z,10.80
2023-03-13T04:23:50.743Z,8.43
2023-03-13T04:26:20.083Z,9.00
2023-03-13T04:28:49.396Z,7.40
2023-03-13T04:31:18.982Z,10.18
2023-03-13T04:33:48.281Z,18.33
2023-03-13T04:36:17.525Z,12.48
2023-03-13T04:38:46.793Z,12.63
2023-03-13T04:41:17.542Z,11.98
2023-03-13T04:43:46.861Z,11.70
2023-03-13T04:46:16.359Z,9.18
2023-03-13T04:48:46.984Z,6.90
2023-03-13T04:51:16.292Z,8.02
2023-03-13T04:53:45.692Z,6.25
2023-03-13T04:56:41.638Z,9.73
2023-03-13T04:59:12.593Z,7.53
2023-03-13T05:01:42.726Z,7.63
2023-03-13T05:04:13.401Z,12.98
2023-03-13T05:06:42.892Z,16.17
2023-03-13T05:09:12.360Z,7.47
2023-03-13T05:11:43.522Z,8.02
2023-03-13T05:14:12.852Z,7.95
2023-03-13T05:16:42.320Z,9.52
2023-03-13T05:19:12.974Z,8.52
2023-03-13T05:21:42.637Z,11.65
2023-03-13T05:24:12.113Z,12.35
2023-03-13T05:26:42.912Z,9.00
2023-03-13T05:29:12.358Z,8.75
2023-03-13T05:31:41.741Z,7.10
2023-03-13T05:34:11.140Z,10.07
2023-03-13T05:36:40.741Z,9.77
2023-03-13T05:39:10.135Z,10.18
2023-03-13T05:41:39.560Z,12.48
2023-03-13T05:44:10.302Z,9.25
2023-03-13T05:46:39.775Z,7.40
2023-03-13T05:49:09.100Z,6.65
2023-03-13T05:51:38.441Z,4.93
2023-03-13T05:54:08.046Z,5.40
2023-03-13T05:56:37.385Z,4.53
2023-03-13T05:59:06.699Z,3.40
2023-03-13T06:01:37.390Z,4.28
2023-03-13T06:04:06.852Z,5.22
2023-03-13T06:06:36.441Z,8.93
2023-03-13T06:09:06.256Z,4.10
2023-03-13T06:11:35.666Z,3.33
2023-03-13T06:14:04.946Z,4.93
2023-03-13T06:16:35.891Z,5.72
2023-03-13T06:19:05.253Z,12.77
2023-03-13T06:21:34.673Z,10.43
2023-03-13T06:24:04.132Z,11.75
2023-03-13T06:26:33.647Z,8.30
2023-03-13T06:29:02.988Z,11.75
2023-03-13T06:31:32.854Z,11.23
2023-03-13T06:34:03.935Z,11.20
2023-03-13T06:36:33.302Z,7.70
2023-03-13T06:39:02.634Z,7.03
2023-03-13T06:41:33.309Z,24.90
2023-03-13T06:44:02.758Z,6.00
2023-03-13T06:46:33.577Z,4.05
2023-03-13T06:51:26.507Z,4.10
2023-03-13T06:53:55.825Z,3.93
2023-03-13T06:56:25.224Z,6.45
2023-03-13T06:58:54.474Z,3.92
2023-03-13T07:01:24.030Z,3.90
2023-03-13T07:03:53.489Z,5.32
2023-03-13T07:06:24.477Z,3.95
2023-03-13T07:08:54.113Z,5.35
2023-03-13T07:11:23.654Z,3.92
2023-03-13T07:14:06.488Z,3.92
2023-03-13T07:16:44.693Z,4.50
2023-03-13T07:19:14.534Z,3.60
2023-03-13T07:21:46.763Z,4.78
2023-03-13T07:24:16.143Z,4.55
2023-03-13T07:27:01.554Z,4.65
2023-03-13T07:29:34.015Z,3.88
2023-03-13T07:32:03.467Z,3.08
2023-03-13T07:34:33.106Z,6.43
2023-03-13T07:37:03.940Z,5.65
2023-03-13T07:39:34.412Z,5.22
2023-03-13T07:42:03.779Z,4.30
2023-03-13T07:44:33.254Z,4.35
2023-03-13T07:47:03.125Z,4.65
2023-03-13T07:49:32.487Z,5.85
2023-03-13T07:52:03.286Z,4.45
2023-03-13T07:54:32.735Z,4.50
2023-03-13T07:57:03.736Z,4.45
2023-03-13T07:59:33.045Z,3.88
2023-03-13T08:02:02.412Z,5.85
2023-03-13T08:04:31.900Z,4.05
2023-03-13T08:07:02.702Z,4.90
2023-03-13T08:09:35.191Z,4.00
2023-03-13T08:12:05.258Z,9.05
2023-03-13T08:14:34.623Z,3.92
2023-03-13T08:17:04.038Z,3.90
2023-03-13T08:19:33.894Z,4.28
2023-03-13T08:22:04.924Z,3.47
2023-03-13T08:24:34.315Z,4.10
2023-03-13T08:27:03.675Z,4.57
2023-03-13T08:29:32.893Z,2.92
2023-03-13T08:32:02.425Z,4.95
2023-03-13T08:34:31.673Z,3.70
2023-03-13T08:37:00.996Z,6.25
2023-03-13T08:39:31.735Z,4.18
2023-03-13T08:42:01.007Z,3.72
2023-03-13T08:44:30.813Z,4.60
2023-03-13T08:47:00.772Z,3.17
2023-03-13T08:49:31.087Z,3.60
2023-03-13T08:52:00.967Z,3.33
2023-03-13T08:54:31.756Z,3.90
2023-03-13T08:57:01.299Z,4.60
2023-03-13T08:59:31.072Z,3.58
2023-03-13T09:02:00.351Z,5.55
2023-03-13T09:04:29.718Z,3.88
2023-03-13T09:06:59.365Z,4.43
2023-03-13T09:09:28.848Z,6.28
2023-03-13T09:11:59.592Z,4.22
2023-03-13T09:14:29.141Z,5.20
2023-03-13T09:16:59.621Z,4.93
2023-03-13T09:19:29.002Z,4.63
2023-03-13T09:21:58.453Z,4.88
2023-03-13T09:24:28.432Z,4.57
2023-03-13T09:27:01.600Z,4.55
2023-03-13T09:29:31.170Z,5.82
2023-03-13T09:32:00.537Z,3.55
2023-03-13T09:34:30.003Z,5.25
2023-03-13T09:36:59.382Z,5.60
2023-03-13T09:39:28.800Z,5.00
2023-03-13T09:42:10.875Z,5.75
2023-03-13T09:44:46.467Z,5.70
2023-03-13T09:47:25.283Z,5.10
2023-03-13T09:51:31.214Z,7.95
2023-03-13T09:54:07.790Z,7.20
2023-03-13T09:56:46.410Z,5.03
2023-03-13T09:59:23.651Z,5.40
2023-03-13T10:01:54.969Z,7.35
2023-03-13T10:04:34.876Z,6.78
2023-03-13T10:07:06.318Z,5.07
2023-03-13T10:09:37.509Z,5.85
2023-03-13T10:12:15.518Z,5.25
2023-03-13T10:14:51.366Z,5.47
2023-03-13T10:17:33.929Z,8.45
2023-03-13T10:20:16.140Z,5.43
2023-03-13T10:22:49.713Z,4.13
2023-03-13T10:25:30.751Z,7.85
2023-03-13T10:28:00.330Z,7.28
2023-03-13T10:30:32.673Z,5.30
2023-03-13T10:33:16.667Z,4.57
2023-03-13T10:35:47.182Z,4.80
2023-03-13T10:38:25.242Z,7.70
2023-03-13T10:41:00.805Z,12.32
2023-03-13T10:43:32.035Z,5.32
2023-03-13T10:46:04.040Z,4.65
2023-03-13T10:48:39.443Z,10.90
2023-03-13T10:51:24.647Z,8.05
2023-03-13T10:53:55.376Z,12.90
2023-03-13T10:56:31.603Z,7.15
2023-03-13T10:59:00.865Z,6.30
2023-03-13T11:01:32.697Z,6.45
2023-03-13T11:04:02.316Z,8.43
2023-03-13T11:06:35.159Z,4.88
2023-03-13T11:11:48.709Z,9.35
2023-03-13T11:14:21.658Z,6.10
2023-03-13T11:16:53.999Z,9.23
2023-03-13T11:19:56.098Z,6.20
2023-03-13T11:22:51.494Z,5.13
2023-03-13T11:25:33.495Z,4.82
2023-03-13T11:28:44.687Z,4.30
2023-03-13T11:31:19.810Z,7.90
2023-03-13T11:33:59.018Z,6.18
2023-03-13T11:36:36.564Z,5.28
2023-03-13T11:39:53.089Z,5.00
2023-03-13T11:42:58.653Z,5.45
2023-03-13T11:45:56.580Z,5.93
2023-03-13T11:49:06.409Z,5.07
2023-03-13T11:51:50.107Z,5.28
2023-03-13T11:54:50.465Z,4.93
2023-03-13T11:57:31.044Z,5.63
2023-03-13T12:00:21.739Z,5.95
2023-03-13T12:02:56.884Z,7.20
2023-03-13T12:05:28.836Z,17.67
2023-03-13T12:08:05.013Z,8.77
2023-03-13T12:10:40.811Z,4.75
2023-03-13T12:13:19.530Z,9.50
2023-03-13T12:15:54.106Z,5.22
2023-03-13T12:18:30.032Z,5.38
2023-03-13T12:21:05.867Z,4.28
2023-03-13T12:23:48.423Z,5.82
2023-03-13T12:26:21.041Z,4.82
2023-03-13T12:29:03.038Z,15.70
2023-03-13T12:31:37.623Z,5.63
2023-03-13T12:34:16.934Z,5.20
2023-03-13T12:36:52.812Z,5.15
2023-03-13T12:39:32.012Z,5.20
2023-03-13T12:42:18.997Z,5.30
2023-03-13T12:44:50.056Z,5.35
2023-03-13T12:47:28.002Z,5.07
2023-03-13T12:51:44.982Z,5.80
2023-03-13T12:54:39.700Z,6.07
2023-03-13T12:57:47.804Z,4.45
2023-03-13T13:00:21.877Z,4.20
2023-03-13T13:03:08.170Z,5.10
2023-03-13T13:05:37.560Z,5.50
2023-03-13T13:08:23.739Z,5.15
2023-03-13T13:10:52.990Z,5.47
2023-03-13T13:13:32.685Z,5.28
2023-03-13T13:16:05.848Z,5.45
2023-03-13T13:18:36.583Z,7.13
2023-03-13T13:21:27.837Z,10.70
2023-03-13T13:24:50.609Z,7.20
2023-03-13T13:27:48.019Z,4.55
2023-03-13T13:30:34.927Z,4.38
2023-03-13T13:33:41.275Z,5.93
2023-03-13T13:36:43.481Z,4.45
2023-03-13T13:39:41.072Z,6.15
2023-03-13T13:42:48.554Z,4.97
2023-03-13T13:45:29.287Z,5.35
2023-03-13T13:48:34.692Z,4.30
2023-03-13T13:51:26.977Z,6.50
2023-03-13T13:54:01.878Z,6.37
2023-03-13T13:56:55.988Z,11.60
2023-03-13T13:59:36.011Z,4.80
2023-03-13T14:02:22.015Z,5.97
2023-03-13T14:04:57.756Z,7.68
2023-03-13T14:07:47.711Z,9.50
2023-03-13T14:10:39.623Z,5.53
2023-03-13T14:13:19.382Z,5.10
2023-03-13T14:15:50.259Z,4.90
2023-03-13T14:18:25.202Z,4.72
2023-03-13T14:21:00.833Z,4.80
2023-03-13T14:23:42.784Z,4.43
2023-03-13T14:26:18.205Z,5.90
2023-03-13T14:28:52.844Z,15.18
2023-03-13T14:31:33.082Z,6.55
2023-03-13T14:34:05.457Z,4.32
2023-03-13T14:36:48.946Z,5.45
2023-03-13T14:39:22.847Z,8.57
2023-03-13T14:41:53.095Z,9.63
2023-03-13T14:44:27.527Z,7.15
2023-03-13T14:46:59.014Z,7.75
2023-03-13T14:49:32.325Z,5.35
2023-03-13T14:52:04.974Z,28.20
2023-03-13T14:54:36.538Z,20.30
2023-03-13T14:57:17.573Z,26.55
2023-03-13T14:59:48.713Z,9.90
2023-03-13T15:02:24.485Z,5.93
2023-03-13T15:05:01.485Z,6.28
2023-03-13T15:07:40.913Z,6.22
2023-03-13T15:10:24.917Z,7.07
2023-03-13T15:12:54.839Z,8.95
2023-03-13T15:15:26.450Z,5.60
2023-03-13T15:17:55.754Z,4.95
2023-03-13T15:20:25.054Z,8.02
2023-03-13T15:22:54.577Z,5.75
2023-03-13T15:25:25.776Z,6.97
2023-03-13T15:27:54.995Z,4.10
2023-03-13T15:30:25.756Z,5.50
2023-03-13T15:32:55.033Z,6.53
2023-03-13T15:35:29.272Z,4.43
2023-03-13T15:37:59.751Z,6.20
2023-03-13T15:40:31.186Z,4.47
2023-03-13T15:43:00.731Z,4.22
2023-03-13T15:45:31.930Z,4.82
2023-03-13T15:51:25.231Z,4.78
2023-03-13T15:53:54.576Z,5.20
2023-03-13T15:56:24.968Z,4.57
2023-03-13T15:58:54.653Z,4.38
2023-03-13T16:01:24.221Z,4.13
2023-03-13T16:03:53.714Z,5.57
2023-03-13T16:06:31.242Z,3.72
2023-03-13T16:09:01.169Z,6.93
2023-03-13T16:11:31.216Z,4.45
2023-03-13T16:14:01.019Z,4.05
2023-03-13T16:16:36.936Z,3.65
2023-03-13T16:19:07.835Z,4.95
2023-03-13T16:21:40.598Z,3.63
2023-03-13T16:26:38.998Z,5.35
2023-03-13T16:29:08.335Z,4.05
2023-03-13T16:31:37.735Z,4.05
2023-03-13T16:34:08.317Z,4.20
2023-03-13T16:36:39.113Z,5.22
2023-03-13T16:39:13.053Z,6.47
2023-03-13T16:41:42.525Z,8.70
2023-03-13T16:44:12.283Z,6.72
2023-03-13T16:46:55.646Z,5.32
2023-03-13T16:49:33.699Z,6.57
2023-03-13T16:52:04.429Z,6.07
2023-03-13T16:54:33.679Z,4.53
2023-03-13T16:57:04.625Z,4.28
2023-03-13T16:59:36.776Z,4.68
2023-03-13T17:02:06.131Z,5.07
2023-03-13T17:04:35.686Z,4.07
2023-03-13T17:07:18.051Z,4.50
2023-03-13T17:09:47.474Z,4.93
2023-03-13T17:12:16.993Z,6.90
2023-03-13T17:14:46.881Z,5.68
2023-03-13T17:17:19.878Z,6.32
2023-03-13T17:19:49.690Z,5.45
2023-03-13T17:22:20.833Z,5.78
2023-03-13T17:24:50.127Z,3.45
2023-03-13T17:27:20.505Z,5.97
2023-03-13T17:29:49.855Z,7.13
2023-03-13T17:32:19.367Z,5.50
2023-03-13T17:34:48.684Z,4.57
2023-03-13T17:37:22.579Z,5.38
2023-03-13T17:39:52.679Z,5.07
2023-03-13T17:42:22.310Z,6.15
2023-03-13T17:44:51.736Z,5.97
2023-03-13T17:47:24.861Z,4.97
2023-03-13T17:49:54.124Z,5.15
2023-03-13T17:52:26.148Z,4.30
2023-03-13T17:54:55.524Z,4.17
2023-03-13T17:57:25.278Z,4.47
2023-03-13T17:59:54.613Z,4.05
2023-03-13T18:02:24.042Z,4.57
2023-03-13T18:04:53.830Z,4.05
2023-03-13T18:07:28.676Z,4.43
2023-03-13T18:09:58.253Z,6.40
2023-03-13T18:12:27.580Z,3.47
2023-03-13T18:14:56.807Z,4.35
2023-03-13T18:17:27.244Z,4.18
2023-03-13T18:19:56.546Z,4.65
2023-03-13T18:22:27.323Z,3.88
2023-03-13T18:24:56.541Z,5.50
2023-03-13T18:27:25.914Z,4.22
2023-03-13T18:29:55.213Z,4.35
2023-03-13T18:32:24.569Z,6.70
2023-03-13T18:34:54.087Z,3.90
2023-03-13T18:37:29.591Z,3.70
2023-03-13T18:40:00.307Z,4.13
2023-03-13T18:42:29.800Z,5.07
2023-03-13T18:44:59.069Z,3.60
2023-03-13T18:47:28.868Z,5.72
2023-03-13T18:51:28.136Z,5.72
2023-03-13T18:53:58.551Z,5.38
2023-03-13T18:56:31.529Z,6.50
2023-03-13T18:59:01.370Z,6.57
2023-03-13T19:01:33.322Z,5.60
2023-03-13T19:04:02.596Z,3.70
2023-03-13T19:06:35.447Z,4.05
2023-03-13T19:09:37.741Z,6.00
2023-03-13T19:12:02.731Z,7.28
2023-03-13T19:14:32.031Z,7.32
2023-03-13T19:17:01.296Z,11.88
2023-03-13T19:19:32.191Z,6.35
2023-03-13T19:22:03.175Z,6.10
2023-03-13T19:24:32.561Z,6.45
2023-03-13T19:27:02.239Z,6.40
2023-03-13T19:29:33.907Z,9.25
2023-03-13T19:32:06.050Z,7.82
2023-03-13T19:34:35.614Z,9.10
2023-03-13T19:37:06.503Z,5.50
2023-03-13T19:39:35.708Z,8.65
2023-03-13T19:42:07.870Z,9.20
2023-03-13T19:44:37.749Z,6.00
2023-03-13T19:47:07.756Z,8.60
2023-03-13T19:49:37.254Z,10.40
2023-03-13T19:52:08.131Z,7.50
2023-03-13T19:54:37.468Z,7.80
2023-03-13T19:57:07.389Z,6.25
2023-03-13T19:59:38.988Z,5.00
2023-03-13T20:02:09.991Z,7.45
2023-03-13T20:04:39.751Z,7.00
2023-03-13T20:07:10.573Z,5.88
2023-03-13T20:09:39.934Z,4.95
2023-03-13T20:12:09.811Z,6.93
2023-03-13T20:14:39.556Z,5.82
2023-03-13T20:17:08.800Z,5.13
2023-03-13T20:19:38.390Z,5.70
2023-03-13T20:22:09.946Z,5.10
2023-03-13T20:24:39.474Z,4.10
2023-03-13T20:27:08.829Z,4.32
2023-03-13T20:29:38.269Z,4.82
2023-03-13T20:32:08.204Z,4.68
2023-03-13T20:34:37.614Z,6.95
2023-03-13T20:37:08.642Z,5.90
2023-03-13T20:39:38.547Z,5.55
2023-03-13T20:42:10.434Z,4.50
2023-03-13T20:44:39.662Z,7.10
2023-03-13T20:47:09.843Z,7.82
2023-03-13T20:49:41.272Z,7.47
2023-03-13T20:52:12.273Z,7.30
2023-03-13T20:54:41.688Z,7.30
2023-03-13T20:57:11.173Z,9.50
2023-03-13T20:59:41.412Z,4.45
2023-03-13T21:02:11.180Z,6.28
2023-03-13T21:04:40.872Z,4.63
2023-03-13T21:07:11.651Z,4.80
2023-03-13T21:09:41.245Z,6.00
2023-03-13T21:12:10.687Z,3.33
2023-03-13T21:14:40.205Z,7.95
2023-03-13T21:17:13.714Z,4.72
2023-03-13T21:19:43.926Z,11.93
2023-03-13T21:22:14.673Z,13.88
2023-03-13T21:24:44.129Z,10.35
2023-03-13T21:27:14.459Z,10.07
2023-03-13T21:29:47.328Z,10.32
2023-03-13T21:34:46.008Z,12.52
2023-03-13T21:37:18.527Z,12.73
2023-03-13T21:39:52.548Z,9.55
2023-03-13T21:42:22.001Z,10.63
2023-03-13T21:44:51.334Z,12.45
2023-03-13T21:47:24.529Z,9.32
2023-03-13T21:51:24.845Z,8.45
2023-03-13T21:53:54.189Z,12.25
2023-03-13T21:56:23.580Z,11.85
2023-03-13T21:58:52.895Z,7.18
2023-03-13T22:01:22.385Z,7.07
2023-03-13T22:03:51.990Z,6.63
2023-03-13T22:06:24.347Z,7.38
2023-03-13T22:08:53.877Z,6.15
2023-03-13T22:11:23.274Z,8.15
2023-03-13T22:13:52.962Z,7.07
2023-03-13T22:16:25.471Z,7.20
2023-03-13T22:18:55.484Z,8.32
2023-03-13T22:21:26.636Z,7.00
2023-03-13T22:23:56.108Z,6.50
2023-03-13T22:26:25.664Z,5.13
2023-03-13T22:28:54.919Z,5.38
2023-03-13T22:31:24.503Z,5.53
2023-03-13T22:33:53.879Z,5.80
2023-03-13T22:36:24.828Z,6.40
2023-03-13T22:38:54.524Z,5.40
2023-03-13T22:41:23.875Z,4.18
2023-03-13T22:43:53.431Z,5.78
2023-03-13T22:46:22.791Z,4.85
2023-03-13T22:48:52.222Z,10.45
2023-03-13T22:51:21.664Z,15.30
2023-03-13T22:53:53.123Z,9.98
2023-03-13T22:56:22.629Z,8.98
2023-03-13T22:58:52.339Z,7.13
2023-03-13T23:01:23.145Z,3.72
2023-03-13T23:03:52.539Z,4.70
2023-03-13T23:06:24.857Z,5.30
2023-03-13T23:08:56.228Z,10.27
2023-03-13T23:11:25.536Z,5.45
2023-03-13T23:13:54.847Z,5.97
2023-03-13T23:16:24.112Z,8.68
2023-03-13T23:18:53.643Z,9.88
2023-03-13T23:21:23.099Z,7.72
2023-03-13T23:23:56.893Z,6.35
2023-03-13T23:26:26.295Z,7.60
2023-03-13T23:28:55.584Z,5.00
2023-03-13T23:31:25.277Z,5.25
2023-03-13T23:33:55.351Z,5.75
2023-03-13T23:36:24.805Z,5.40
2023-03-13T23:38:58.471Z,5.10
2023-03-13T23:41:27.887Z,6.15
2023-03-13T23:43:57.265Z,10.45
2023-03-13T23:46:29.025Z,9.27
2023-03-13T23:48:59.740Z,11.35
2023-03-13T23:51:29.472Z,6.18
2023-03-13T23:54:01.182Z,5.75
2023-03-13T23:56:30.712Z,6.28
2023-03-13T23:59:00.254Z,6.63
